Time,TemperatureF,DewpointF,PressureIn,WindDirection,WindDirectionDegrees,WindSpeedMPH,WindSpeedGustMPH,Humidity,HourlyPrecipIn,Conditions,Clouds,dailyrainin,SolarRadiationWatts/m^2,SoftwareType,DateUTC
2013-03-30 00:02:00,40.0,28.0,-100.00,SW,222,2.0,5.0,63,0.00,,,0.00,1.000000,,2013-03-30 06:02:00,
2013-03-30 00:12:00,40.0,28.0,-100.00,SW,222,2.0,5.0,63,0.00,,,0.00,1.000000,,2013-03-30 06:12:00,
2013-03-30 00:22:00,40.0,28.0,-100.00,SW,222,2.0,5.0,63,0.00,,,0.00,1.000000,,2013-03-30 06:22:00,
2013-03-30 00:42:00,40.0,28.0,-100.00,NNE,25,1.0,4.0,63,0.00,,,0.00,1.000000,,2013-03-30 06:42:00,
2013-03-30 00:52:00,40.0,28.0,-100.00,NNE,25,1.0,4.0,63,0.00,,,0.00,1.000000,,2013-03-30 06:52:00,
2013-03-30 01:02:00,40.0,28.0,-100.00,NNE,25,1.0,4.0,63,0.00,,,0.00,1.000000,,2013-03-30 07:02:00,
2013-03-30 01:12:00,40.0,28.0,-100.00,NNE,25,1.0,4.0,63,0.00,,,0.00,1.000000,,2013-03-30 07:12:00,
2013-03-30 01:22:00,40.0,28.0,-100.00,NNE,25,1.0,4.0,63,0.00,,,0.00,1.000000,,2013-03-30 07:22:00,
2013-03-30 01:42:00,40.0,27.0,-100.00,North,1,0.0,4.0,59,0.00,,,0.00,1.000000,,2013-03-30 07:42:00,
2013-03-30 01:52:00,40.0,27.0,-100.00,North,1,0.0,4.0,59,0.00,,,0.00,1.000000,,2013-03-30 07:52:00,
2013-03-30 02:02:00,40.0,27.0,-100.00,North,1,0.0,4.0,59,0.00,,,0.00,1.000000,,2013-03-30 08:02:00,
2013-03-30 02:12:00,40.0,27.0,-100.00,North,1,0.0,4.0,59,0.00,,,0.00,1.000000,,2013-03-30 08:12:00,
2013-03-30 02:21:00,40.0,27.0,-100.00,North,1,0.0,4.0,59,0.00,,,0.00,1.000000,,2013-03-30 08:21:00,
2013-03-30 02:42:00,40.0,25.0,-100.00,NE,41,2.0,6.0,55,0.00,,,0.00,1.000000,,2013-03-30 08:42:00,
2013-03-30 02:53:00,40.0,25.0,-100.00,NE,41,2.0,6.0,55,0.00,,,0.00,1.000000,,2013-03-30 08:53:00,
2013-03-30 03:02:00,40.0,25.0,-100.00,NE,41,2.0,6.0,55,0.00,,,0.00,1.000000,,2013-03-30 09:02:00,
2013-03-30 03:12:00,40.0,25.0,-100.00,NE,41,2.0,6.0,55,0.00,,,0.00,1.000000,,2013-03-30 09:12:00,
2013-03-30 03:22:00,40.0,25.0,-100.00,NE,41,2.0,6.0,55,0.00,,,0.00,1.000000,,2013-03-30 09:22:00,
2013-03-30 03:43:00,38.0,28.0,-100.00,West,260,3.0,6.0,67,0.00,,,0.00,1.000000,,2013-03-30 09:43:00,
2013-03-30 03:53:00,38.0,28.0,-100.00,West,260,3.0,6.0,67,0.00,,,0.00,1.000000,,2013-03-30 09:53:00,
2013-03-30 04:02:00,38.0,28.0,-100.00,West,260,3.0,6.0,67,0.00,,,0.00,1.000000,,2013-03-30 10:02:00,
2013-03-30 04:13:00,38.0,28.0,-100.00,West,260,3.0,6.0,67,0.00,,,0.00,1.000000,,2013-03-30 10:13:00,
2013-03-30 04:23:00,38.0,28.0,-100.00,West,260,3.0,6.0,67,0.00,,,0.00,1.000000,,2013-03-30 10:23:00,
2013-03-30 04:42:00,35.0,33.0,-100.00,WSW,255,2.0,9.0,92,0.00,,,0.00,0.000000,,2013-03-30 10:42:00,
2013-03-30 04:52:00,35.0,33.0,-100.00,WSW,255,2.0,9.0,92,0.00,,,0.00,0.000000,,2013-03-30 10:52:00,
2013-03-30 05:03:00,35.0,33.0,-100.00,WSW,255,2.0,9.0,92,0.00,,,0.00,0.000000,,2013-03-30 11:03:00,
2013-03-30 05:12:00,35.0,33.0,-100.00,WSW,255,2.0,9.0,92,0.00,,,0.00,0.000000,,2013-03-30 11:12:00,
2013-03-30 05:22:00,35.0,33.0,-100.00,WSW,255,2.0,9.0,92,0.00,,,0.00,0.000000,,2013-03-30 11:22:00,
2013-03-30 05:43:00,34.0,32.0,-100.00,South,174,0.0,3.0,91,0.00,,,0.00,1.000000,,2013-03-30 11:43:00,
2013-03-30 05:53:00,34.0,32.0,-100.00,South,174,0.0,3.0,91,0.00,,,0.00,1.000000,,2013-03-30 11:53:00,
2013-03-30 06:02:00,34.0,32.0,-100.00,South,174,0.0,3.0,91,0.00,,,0.00,1.000000,,2013-03-30 12:02:00,
2013-03-30 06:12:00,34.0,32.0,-100.00,South,174,0.0,3.0,91,0.00,,,0.00,1.000000,,2013-03-30 12:12:00,
2013-03-30 06:22:00,34.0,32.0,-100.00,South,174,0.0,3.0,91,0.00,,,0.00,1.000000,,2013-03-30 12:22:00,
2013-03-30 06:43:00,32.0,30.0,-100.00,NE,49,2.0,3.0,92,0.00,,,0.00,1.000000,,2013-03-30 12:43:00,
2013-03-30 06:53:00,32.0,30.0,-100.00,NE,49,2.0,3.0,92,0.00,,,0.00,1.000000,,2013-03-30 12:53:00,
2013-03-30 07:02:00,32.0,30.0,-100.00,NE,49,2.0,3.0,92,0.00,,,0.00,1.000000,,2013-03-30 13:02:00,
2013-03-30 07:12:00,32.0,30.0,-100.00,NE,49,2.0,3.0,92,0.00,,,0.00,1.000000,,2013-03-30 13:12:00,
2013-03-30 07:22:00,32.0,30.0,-100.00,NE,49,2.0,3.0,92,0.00,,,0.00,1.000000,,2013-03-30 13:22:00,
2013-03-30 07:43:00,33.0,29.0,-100.00,SSW,201,0.0,3.0,86,0.00,,,0.00,12.000000,,2013-03-30 13:43:00,
2013-03-30 07:53:00,33.0,29.0,-100.00,SSW,201,0.0,3.0,86,0.00,,,0.00,12.000000,,2013-03-30 13:53:00,
2013-03-30 08:02:00,33.0,29.0,-100.00,SSW,201,0.0,3.0,86,0.00,,,0.00,12.000000,,2013-03-30 14:02:00,
2013-03-30 08:11:00,33.0,29.0,-100.00,SSW,201,0.0,3.0,86,0.00,,,0.00,12.000000,,2013-03-30 14:11:00,
2013-03-30 08:43:00,37.0,31.0,-100.00,SSW,201,1.0,5.0,78,0.00,,,0.00,62.000000,,2013-03-30 14:43:00,
2013-03-30 08:52:00,37.0,31.0,-100.00,SSW,201,1.0,5.0,78,0.00,,,0.00,62.000000,,2013-03-30 14:52:00,
2013-03-30 09:02:00,37.0,31.0,-100.00,SSW,201,1.0,5.0,78,0.00,,,0.00,62.000000,,2013-03-30 15:02:00,
2013-03-30 09:12:00,37.0,31.0,-100.00,SSW,201,1.0,5.0,78,0.00,,,0.00,62.000000,,2013-03-30 15:12:00,
2013-03-30 09:22:00,37.0,31.0,-100.00,SSW,201,1.0,5.0,78,0.00,,,0.00,62.000000,,2013-03-30 15:22:00,
2013-03-30 09:43:00,41.0,30.0,-100.00,SSW,195,3.0,5.0,64,0.00,,,0.00,183.000000,,2013-03-30 15:43:00,
2013-03-30 09:53:00,41.0,30.0,-100.00,SSW,195,3.0,5.0,64,0.00,,,0.00,183.000000,,2013-03-30 15:53:00,
2013-03-30 10:03:00,41.0,30.0,-100.00,SSW,195,3.0,5.0,64,0.00,,,0.00,183.000000,,2013-03-30 16:03:00,
2013-03-30 10:13:00,41.0,30.0,-100.00,SSW,195,3.0,5.0,64,0.00,,,0.00,183.000000,,2013-03-30 16:13:00,
2013-03-30 10:23:00,41.0,30.0,-100.00,SSW,195,3.0,5.0,64,0.00,,,0.00,183.000000,,2013-03-30 16:23:00,
2013-03-30 10:43:00,44.0,28.0,-100.00,SSW,211,4.0,8.0,52,0.00,,,0.00,315.000000,,2013-03-30 16:43:00,
2013-03-30 10:53:00,44.0,28.0,-100.00,SSW,211,4.0,8.0,52,0.00,,,0.00,315.000000,,2013-03-30 16:53:00,
2013-03-30 11:02:00,44.0,28.0,-100.00,SSW,211,4.0,8.0,52,0.00,,,0.00,315.000000,,2013-03-30 17:02:00,
2013-03-30 11:13:00,44.0,28.0,-100.00,SSW,211,4.0,8.0,52,0.00,,,0.00,315.000000,,2013-03-30 17:13:00,
2013-03-30 11:22:00,44.0,28.0,-100.00,SSW,211,4.0,8.0,52,0.00,,,0.00,315.000000,,2013-03-30 17:22:00,
2013-03-30 11:43:00,50.0,24.0,-100.00,WSW,247,4.0,12.0,36,0.00,,,0.00,422.000000,,2013-03-30 17:43:00,
2013-03-30 11:53:00,50.0,24.0,-100.00,WSW,247,4.0,12.0,36,0.00,,,0.00,422.000000,,2013-03-30 17:53:00,
2013-03-30 12:03:00,50.0,24.0,-100.00,WSW,247,4.0,12.0,36,0.00,,,0.00,422.000000,,2013-03-30 18:03:00,
2013-03-30 12:12:00,50.0,24.0,-100.00,WSW,247,4.0,12.0,36,0.00,,,0.00,422.000000,,2013-03-30 18:12:00,
2013-03-30 12:22:00,50.0,24.0,-100.00,WSW,247,4.0,12.0,36,0.00,,,0.00,422.000000,,2013-03-30 18:22:00,
2013-03-30 12:43:00,49.0,22.0,-100.00,NW,318,4.0,11.0,34,0.00,,,0.00,553.000000,,2013-03-30 18:43:00,
2013-03-30 12:53:00,49.0,22.0,-100.00,NW,318,4.0,11.0,34,0.00,,,0.00,553.000000,,2013-03-30 18:53:00,
2013-03-30 13:03:00,49.0,22.0,-100.00,NW,318,4.0,11.0,34,0.00,,,0.00,553.000000,,2013-03-30 19:03:00,
2013-03-30 13:13:00,49.0,22.0,-100.00,NW,318,4.0,11.0,34,0.00,,,0.00,553.000000,,2013-03-30 19:13:00,
2013-03-30 13:22:00,49.0,22.0,-100.00,NW,318,4.0,11.0,34,0.00,,,0.00,553.000000,,2013-03-30 19:22:00,
2013-03-30 13:42:00,42.0,30.0,-100.00,WSW,237,4.0,11.0,61,0.00,,,0.00,264.000000,,2013-03-30 19:42:00,
2013-03-30 13:53:00,42.0,30.0,-100.00,WSW,237,4.0,11.0,61,0.00,,,0.00,264.000000,,2013-03-30 19:53:00,
2013-03-30 14:02:00,42.0,30.0,-100.00,WSW,237,4.0,11.0,61,0.00,,,0.00,264.000000,,2013-03-30 20:02:00,
2013-03-30 14:12:00,42.0,30.0,-100.00,WSW,237,4.0,11.0,61,0.00,,,0.00,264.000000,,2013-03-30 20:12:00,
2013-03-30 14:22:00,42.0,30.0,-100.00,WSW,237,4.0,11.0,61,0.00,,,0.00,264.000000,,2013-03-30 20:22:00,
2013-03-30 14:43:00,45.0,30.0,-100.00,NE,34,7.0,16.0,56,0.00,,,-99.99,460.000000,,2013-03-30 20:43:00,
2013-03-30 14:53:00,45.0,30.0,-100.00,NE,34,7.0,16.0,56,0.00,,,-99.99,460.000000,,2013-03-30 20:53:00,
2013-03-30 15:02:00,45.0,30.0,-100.00,NE,34,7.0,16.0,56,0.00,,,-99.99,460.000000,,2013-03-30 21:02:00,
2013-03-30 15:12:00,45.0,30.0,-100.00,NE,34,7.0,16.0,56,0.00,,,-99.99,460.000000,,2013-03-30 21:12:00,
2013-03-30 15:22:00,45.0,30.0,-100.00,NE,34,7.0,16.0,56,0.00,,,-99.99,460.000000,,2013-03-30 21:22:00,
2013-03-30 15:43:00,48.0,20.0,-100.00,WNW,289,6.0,17.0,33,0.00,,,0.00,678.000000,,2013-03-30 21:43:00,
2013-03-30 15:53:00,48.0,20.0,-100.00,WNW,289,6.0,17.0,33,0.00,,,0.00,678.000000,,2013-03-30 21:53:00,
2013-03-30 16:03:00,48.0,20.0,-100.00,WNW,289,6.0,17.0,33,0.00,,,0.00,678.000000,,2013-03-30 22:03:00,
2013-03-30 16:13:00,48.0,20.0,-100.00,WNW,289,6.0,17.0,33,0.00,,,0.00,678.000000,,2013-03-30 22:13:00,
2013-03-30 16:23:00,48.0,20.0,-100.00,WNW,289,6.0,17.0,33,0.00,,,0.00,678.000000,,2013-03-30 22:23:00,
2013-03-30 16:43:00,38.0,34.0,-100.00,West,263,2.0,17.0,86,0.00,,,0.00,218.000000,,2013-03-30 22:43:00,
2013-03-30 16:53:00,38.0,34.0,-100.00,West,263,2.0,17.0,86,0.00,,,0.00,218.000000,,2013-03-30 22:53:00,
2013-03-30 17:02:00,38.0,34.0,-100.00,West,263,2.0,17.0,86,0.00,,,0.00,218.000000,,2013-03-30 23:02:00,
2013-03-30 17:12:00,38.0,34.0,-100.00,West,263,2.0,17.0,86,0.00,,,0.00,218.000000,,2013-03-30 23:12:00,
2013-03-30 17:22:00,38.0,34.0,-100.00,West,263,2.0,17.0,86,0.00,,,0.00,218.000000,,2013-03-30 23:22:00,
2013-03-30 17:43:00,43.0,28.0,-100.00,West,259,4.0,13.0,56,0.00,,,0.00,433.000000,,2013-03-30 23:43:00,
2013-03-30 17:53:00,43.0,28.0,-100.00,West,259,4.0,13.0,56,0.00,,,0.00,433.000000,,2013-03-30 23:53:00,
2013-03-30 18:02:00,43.0,28.0,-100.00,West,259,4.0,13.0,56,0.00,,,0.00,433.000000,,2013-03-31 00:02:00,
2013-03-30 18:12:00,43.0,28.0,-100.00,West,259,4.0,13.0,56,0.00,,,0.00,433.000000,,2013-03-31 00:12:00,
2013-03-30 18:22:00,43.0,28.0,-100.00,West,259,4.0,13.0,56,0.00,,,0.00,433.000000,,2013-03-31 00:22:00,
2013-03-30 18:43:00,39.0,26.0,-100.00,SW,220,4.0,13.0,59,0.00,,,0.00,76.000000,,2013-03-31 00:43:00,
2013-03-30 18:53:00,39.0,26.0,-100.00,SW,220,4.0,13.0,59,0.00,,,0.00,76.000000,,2013-03-31 00:53:00,
2013-03-30 19:02:00,39.0,26.0,-100.00,SW,220,4.0,13.0,59,0.00,,,0.00,76.000000,,2013-03-31 01:02:00,
2013-03-30 19:12:00,39.0,26.0,-100.00,SW,220,4.0,13.0,59,0.00,,,0.00,76.000000,,2013-03-31 01:12:00,
2013-03-30 19:22:00,39.0,26.0,-100.00,SW,220,4.0,13.0,59,0.00,,,0.00,76.000000,,2013-03-31 01:22:00,
2013-03-30 19:43:00,35.0,28.0,-100.00,SW,218,3.0,14.0,76,0.00,,,0.00,16.000000,,2013-03-31 01:43:00,
2013-03-30 19:53:00,35.0,28.0,-100.00,SW,218,3.0,14.0,76,0.00,,,0.00,16.000000,,2013-03-31 01:53:00,
2013-03-30 20:02:00,35.0,28.0,-100.00,SW,218,3.0,14.0,76,0.00,,,0.00,16.000000,,2013-03-31 02:02:00,
2013-03-30 20:13:00,35.0,28.0,-100.00,SW,218,3.0,14.0,76,0.00,,,0.00,16.000000,,2013-03-31 02:13:00,
2013-03-30 20:22:00,35.0,28.0,-100.00,SW,218,3.0,14.0,76,0.00,,,0.00,16.000000,,2013-03-31 02:22:00,
2013-03-30 20:43:00,35.0,24.0,-100.00,NW,304,4.0,12.0,63,0.00,,,0.00,1.000000,,2013-03-31 02:43:00,
2013-03-30 20:52:00,35.0,24.0,-100.00,NW,304,4.0,12.0,63,0.00,,,0.00,1.000000,,2013-03-31 02:52:00,
2013-03-30 21:02:00,35.0,24.0,-100.00,NW,304,4.0,12.0,63,0.00,,,0.00,1.000000,,2013-03-31 03:02:00,
2013-03-30 21:12:00,35.0,24.0,-100.00,NW,304,4.0,12.0,63,0.00,,,0.00,1.000000,,2013-03-31 03:12:00,
2013-03-30 21:22:00,35.0,24.0,-100.00,NW,304,4.0,12.0,63,0.00,,,0.00,1.000000,,2013-03-31 03:22:00,
2013-03-30 21:44:00,34.0,25.0,-100.00,WSW,240,3.0,10.0,68,0.00,,,0.00,1.000000,,2013-03-31 03:44:00,
2013-03-30 21:54:00,34.0,25.0,-100.00,WSW,240,3.0,10.0,68,0.00,,,0.00,1.000000,,2013-03-31 03:54:00,
2013-03-30 22:03:00,34.0,-99.9,-100.00,WSW,240,3.0,10.0,68,0.00,,,0.00,1.000000,,2013-03-31 04:03:00,
2013-03-30 22:13:00,34.0,25.0,-100.00,WSW,240,3.0,10.0,68,0.00,,,0.00,1.000000,,2013-03-31 04:13:00,
2013-03-30 22:23:00,34.0,25.0,-100.00,WSW,240,3.0,10.0,68,0.00,,,0.00,1.000000,,2013-03-31 04:23:00,
2013-03-30 22:43:00,31.0,25.0,-100.00,NW,310,2.0,7.0,79,0.00,,,0.00,1.000000,,2013-03-31 04:43:00,
2013-03-30 22:53:00,31.0,25.0,-100.00,NW,310,2.0,7.0,79,0.00,,,0.00,1.000000,,2013-03-31 04:53:00,
2013-03-30 23:02:00,31.0,25.0,-100.00,NW,310,2.0,7.0,79,0.00,,,0.00,1.000000,,2013-03-31 05:02:00,
2013-03-30 23:12:00,31.0,25.0,-100.00,NW,310,2.0,7.0,79,0.00,,,0.00,1.000000,,2013-03-31 05:12:00,
2013-03-30 23:22:00,31.0,25.0,-100.00,NW,310,2.0,7.0,79,0.00,,,0.00,1.000000,,2013-03-31 05:22:00,
2013-03-30 23:42:00,29.0,25.0,-100.00,ENE,57,2.0,4.0,86,0.00,,,0.00,1.000000,,2013-03-31 05:42:00,
2013-03-30 23:53:00,29.0,25.0,-100.00,ENE,57,2.0,4.0,86,0.00,,,0.00,1.000000,,2013-03-31 05:53:00,